Time;durP1;ratioP1;P1;durP2;ratioP2;P2;SDS_P1;SDS_P2;PMS_P1;PMS_P2;Temp;Humidity;BMP_temperature;BMP_pressure;BME280_temperature;BME280_humidity;BME280_pressure;Samples;Min_cycle;Max_cycle;Signal;HPM_P1;HPM_P2
2022/06/06 00:01:58;;;;;;;31.77;20.83;;;16.00;99.90;;;;;;4993734;28;20218;-69
2022/06/06 00:04:27;;;;;;;29.70;21.07;;;15.90;99.90;;;;;;4994038;28;20179;-69
2022/06/06 00:06:58;;;;;;;35.10;22.03;;;15.90;99.90;;;;;;4993901;28;20686;-69
2022/06/06 00:09:24;;;;;;;30.67;21.10;;;16.00;99.90;;;;;;4993517;28;20623;-70
2022/06/06 00:11:50;;;;;;;30.50;20.17;;;16.00;99.90;;;;;;4993687;28;20206;-70
2022/06/06 00:14:17;;;;;;;31.07;20.10;;;16.00;99.90;;;;;;4993715;28;20261;-70
2022/06/06 00:16:43;;;;;;;31.77;22.53;;;16.00;99.90;;;;;;4993713;28;20179;-70
2022/06/06 00:19:10;;;;;;;32.07;23.67;;;16.10;99.90;;;;;;4993944;28;20576;-69
2022/06/06 00:21:37;;;;;;;33.60;23.63;;;16.10;99.90;;;;;;4993472;28;20207;-69
2022/06/06 00:24:04;;;;;;;35.63;22.97;;;16.10;99.90;;;;;;4993242;28;20190;-68
2022/06/06 00:26:31;;;;;;;32.67;23.63;;;16.00;99.90;;;;;;4993548;28;20178;-69
2022/06/06 00:28:57;;;;;;;36.30;23.47;;;16.10;99.90;;;;;;4993721;28;20179;-69
2022/06/06 00:37:01;;;;;;;35.57;23.60;;;16.00;99.90;;;;;;4993555;28;20179;-69
2022/06/06 00:39:27;;;;;;;34.90;24.03;;;16.00;99.90;;;;;;4993241;28;20172;-68
2022/06/06 00:41:55;;;;;;;35.97;23.93;;;16.00;99.90;;;;;;4993555;28;20195;-68
2022/06/06 00:44:30;;;;;;;35.93;23.93;;;16.00;99.90;;;;;;4993384;28;20221;-68
2022/06/06 00:47:00;;;;;;;36.97;24.13;;;16.00;99.90;;;;;;4993409;28;20171;-68
2022/06/06 00:49:36;;;;;;;34.83;24.50;;;16.10;99.90;;;;;;4993385;28;20650;-69
2022/06/06 00:52:04;;;;;;;37.90;23.93;;;16.00;99.90;;;;;;4993601;28;20178;-68
2022/06/06 00:54:30;;;;;;;36.17;23.87;;;15.90;99.90;;;;;;4993022;28;20183;-68
2022/06/06 00:57:02;;;;;;;35.67;22.90;;;15.90;99.90;;;;;;4993537;28;20163;-68
2022/06/06 00:59:30;;;;;;;31.17;21.57;;;15.80;99.90;;;;;;4993403;28;20172;-68
2022/06/06 01:01:57;;;;;;;30.13;20.90;;;15.80;99.90;;;;;;4993387;28;20183;-68
2022/06/06 01:04:25;;;;;;;29.53;21.37;;;15.50;99.90;;;;;;4993360;28;20223;-68
2022/06/06 01:06:52;;;;;;;32.93;21.77;;;15.50;99.90;;;;;;4992933;28;20262;-69
2022/06/06 01:09:19;;;;;;;29.87;20.30;;;15.50;99.90;;;;;;4993238;28;20179;-67
2022/06/06 01:11:52;;;;;;;33.47;21.17;;;15.40;99.90;;;;;;4993315;28;20188;-67
2022/06/06 01:14:21;;;;;;;33.53;21.07;;;15.40;99.90;;;;;;4996650;28;20191;-69
2022/06/06 01:17:05;;;;;;;33.83;22.23;;;15.40;99.90;;;;;;4995651;28;20230;-68
2022/06/06 01:19:48;;;;;;;30.73;21.10;;;15.40;99.90;;;;;;4996754;28;20163;-68
2022/06/06 01:22:23;;;;;;;33.27;21.30;;;15.40;99.90;;;;;;4996131;28;20731;-68
2022/06/06 01:25:10;;;;;;;30.27;21.17;;;15.30;99.90;;;;;;4996436;28;20171;-68
2022/06/06 01:27:57;;;;;;;30.13;21.87;;;15.30;99.90;;;;;;4996672;28;20182;-68
2022/06/06 01:30:27;;;;;;;32.10;22.10;;;15.30;99.90;;;;;;4996371;28;20199;-69
2022/06/06 01:32:59;;;;;;;37.47;22.63;;;15.20;99.90;;;;;;4996513;28;20163;-69
2022/06/06 01:35:29;;;;;;;38.20;24.87;;;15.20;99.90;;;;;;4995202;28;20198;-69
2022/06/06 01:37:55;;;;;;;42.27;27.10;;;15.20;99.90;;;;;;4996100;28;20171;-68
2022/06/06 01:40:22;;;;;;;40.73;25.30;;;15.20;99.90;;;;;;4996296;28;20180;-69
2022/06/06 01:42:59;;;;;;;38.37;25.03;;;15.30;99.90;;;;;;4994997;28;20538;-68
2022/06/06 01:45:34;;;;;;;35.43;23.53;;;15.30;99.90;;;;;;4996474;28;20211;-69
2022/06/06 01:48:10;;;;;;;35.63;23.63;;;15.10;99.90;;;;;;4996334;28;20182;-69
2022/06/06 01:50:38;;;;;;;33.47;23.60;;;15.10;99.90;;;;;;4995886;28;20236;-69
2022/06/06 01:53:07;;;;;;;35.43;24.33;;;15.10;99.90;;;;;;4996062;28;20263;-68
2022/06/06 01:55:38;;;;;;;33.03;22.93;;;15.00;99.90;;;;;;4995957;28;20253;-68
2022/06/06 01:58:08;;;;;;;36.67;23.80;;;15.00;99.90;;;;;;4995970;28;20179;-69
2022/06/06 02:00:36;;;;;;;37.00;23.57;;;15.00;99.90;;;;;;4996217;28;20175;-69
2022/06/06 02:03:02;;;;;;;32.10;22.00;;;15.10;99.90;;;;;;4995800;28;20175;-68
2022/06/06 02:05:29;;;;;;;30.83;20.00;;;15.00;99.90;;;;;;4995591;28;20210;-68
2022/06/06 02:07:55;;;;;;;29.57;19.97;;;14.90;99.90;;;;;;4995821;28;20167;-68
2022/06/06 02:10:22;;;;;;;30.83;20.63;;;14.90;99.90;;;;;;4996083;28;20210;-69
2022/06/06 02:12:48;;;;;;;27.87;19.93;;;15.00;99.90;;;;;;4995798;28;20184;-68
2022/06/06 02:15:16;;;;;;;29.20;19.57;;;15.00;99.90;;;;;;4995648;28;20203;-69
2022/06/06 02:17:42;;;;;;;29.33;20.77;;;15.00;99.90;;;;;;4995723;28;20179;-69
2022/06/06 02:20:10;;;;;;;32.37;19.90;;;15.00;99.90;;;;;;4995381;28;20641;-69
2022/06/06 02:22:35;;;;;;;31.37;19.47;;;15.00;99.90;;;;;;4994101;28;20223;-69
2022/06/06 02:25:02;;;;;;;26.87;19.50;;;15.10;99.90;;;;;;4995266;28;20187;-69
2022/06/06 02:27:28;;;;;;;24.57;18.17;;;15.00;99.90;;;;;;4995245;28;20182;-68
2022/06/06 02:29:54;;;;;;;24.30;17.83;;;15.00;99.90;;;;;;4995516;28;20207;-68
2022/06/06 02:32:19;;;;;;;31.87;19.17;;;14.90;99.90;;;;;;4995441;28;20178;-68
2022/06/06 02:34:45;;;;;;;27.10;19.53;;;14.90;99.90;;;;;;4995027;28;20185;-68
2022/06/06 02:37:11;;;;;;;25.43;18.77;;;14.80;99.90;;;;;;4995246;28;20639;-68
2022/06/06 02:39:36;;;;;;;25.30;17.97;;;14.80;99.90;;;;;;4995157;28;20167;-68
2022/06/06 02:42:02;;;;;;;22.77;15.10;;;14.60;99.90;;;;;;4995473;28;20172;-68
2022/06/06 02:44:28;;;;;;;26.80;15.87;;;14.40;99.90;;;;;;4995461;28;20651;-69
2022/06/06 02:46:53;;;;;;;23.57;15.20;;;14.40;99.90;;;;;;4995098;28;20678;-68
2022/06/06 02:49:19;;;;;;;20.17;14.40;;;14.30;99.90;;;;;;4994708;28;20171;-68
2022/06/06 02:51:45;;;;;;;22.03;15.50;;;14.30;99.90;;;;;;4994864;28;20211;-67
2022/06/06 02:54:10;;;;;;;21.90;15.20;;;14.20;99.90;;;;;;4994759;28;20171;-68
2022/06/06 02:56:36;;;;;;;23.67;15.43;;;14.10;99.90;;;;;;4993534;28;20219;-67
2022/06/06 02:59:05;;;;;;;22.60;15.80;;;14.10;99.90;;;;;;4994856;28;20194;-66
2022/06/06 03:01:31;;;;;;;23.90;15.97;;;14.00;99.90;;;;;;4994960;28;20183;-68
2022/06/06 03:03:56;;;;;;;26.43;15.50;;;14.00;99.90;;;;;;4993545;28;20172;-67
2022/06/06 03:06:41;;;;;;;24.90;16.23;;;14.00;99.90;;;;;;4994584;28;20221;-67
2022/06/06 03:09:31;;;;;;;22.47;15.40;;;14.00;99.90;;;;;;4994728;28;20229;-68
2022/06/06 03:12:24;;;;;;;22.20;15.17;;;13.90;99.90;;;;;;4994754;28;20183;-67
2022/06/06 03:15:08;;;;;;;24.77;15.10;;;13.80;99.90;;;;;;4993115;28;20222;-68
2022/06/06 03:20:51;;;;;;;23.53;14.23;;;13.70;99.90;;;;;;4994642;28;20194;-67
2022/06/06 03:23:41;;;;;;;19.90;13.53;;;13.60;99.90;;;;;;4994205;28;20233;-70
2022/06/06 03:26:31;;;;;;;23.13;13.13;;;13.60;99.90;;;;;;4994189;28;20631;-68
2022/06/06 03:29:43;;;;;;;19.43;12.47;;;13.60;99.90;;;;;;4994105;28;20164;-68
2022/06/06 03:32:27;;;;;;;23.00;12.73;;;13.60;99.90;;;;;;4993851;28;20638;-67
2022/06/06 03:34:56;;;;;;;18.40;12.60;;;13.50;99.90;;;;;;4993957;28;20171;-69
2022/06/06 03:37:32;;;;;;;17.93;11.73;;;13.50;99.90;;;;;;4994425;28;20171;-67
2022/06/06 03:40:26;;;;;;;19.80;12.60;;;13.50;99.90;;;;;;4994158;28;20171;-68
2022/06/06 03:43:01;;;;;;;16.87;11.23;;;13.50;99.90;;;;;;4992590;28;20225;-68
2022/06/06 03:45:35;;;;;;;15.93;10.87;;;13.50;99.90;;;;;;4993948;28;20261;-69
2022/06/06 03:48:28;;;;;;;14.47;10.33;;;13.70;99.90;;;;;;4993616;28;20167;-68
2022/06/06 03:51:24;;;;;;;12.63;10.00;;;14.00;99.90;;;;;;4993860;28;20242;-67
2022/06/06 03:54:03;;;;;;;13.27;9.20;;;14.30;99.90;;;;;;4993898;28;20175;-69
2022/06/06 03:56:47;;;;;;;12.73;8.27;;;14.60;99.90;;;;;;4992545;28;20540;-67
2022/06/06 03:59:14;;;;;;;12.77;7.90;;;14.90;99.90;;;;;;4993875;28;20178;-69
2022/06/06 04:01:41;;;;;;;9.97;7.80;;;15.30;77.00;;;;;;4993625;28;20238;-69
2022/06/06 04:04:07;;;;;;;9.73;7.17;;;15.60;60.50;;;;;;4993543;28;20639;-69
2022/06/06 04:06:33;;;;;;;11.27;6.97;;;15.90;49.00;;;;;;4993605;28;20182;-67
2022/06/06 04:08:59;;;;;;;6.60;5.90;;;16.30;31.20;;;;;;4992119;28;20540;-68
2022/06/06 04:11:27;;;;;;;7.00;6.13;;;16.70;7.90;;;;;;4993525;28;20215;-69
2022/06/06 04:14:21;;;;;;;6.70;6.00;;;17.00;1.00;;;;;;4993446;28;20281;-67
2022/06/06 04:16:46;;;;;;;7.23;5.70;;;17.40;1.00;;;;;;4993432;28;20199;-68
2022/06/06 04:19:45;;;;;;;5.27;4.73;;;17.80;1.00;;;;;;4993630;28;20179;-69
2022/06/06 04:22:50;;;;;;;5.23;4.40;;;18.50;1.00;;;;;;4993230;28;20223;-68
2022/06/06 04:25:27;;;;;;;5.47;4.47;;;19.10;1.00;;;;;;4993023;28;20182;-68
2022/06/06 04:28:22;;;;;;;5.00;4.13;;;19.20;1.00;;;;;;4993585;28;20179;-70
2022/06/06 04:31:36;;;;;;;7.18;4.45;;;19.40;1.00;;;;;;4993304;28;20207;-68
2022/06/06 04:34:30;;;;;;;4.55;4.10;;;20.40;99.90;;;;;;4991715;28;20266;-68
2022/06/06 04:37:16;;;;;;;3.65;3.30;;;21.10;1.00;;;;;;4993612;28;20172;-70
2022/06/06 04:40:02;;;;;;;3.55;3.35;;;22.00;1.00;;;;;;4993206;28;20210;-68
2022/06/06 04:42:58;;;;;;;3.83;3.53;;;22.20;99.90;;;;;;4993284;28;20179;-70
2022/06/06 04:45:38;;;;;;;5.75;3.83;;;21.40;1.00;;;;;;4992865;28;20176;-68
2022/06/06 04:48:05;;;;;;;3.83;3.47;;;20.50;1.00;;;;;;4995387;28;20182;-68
2022/06/06 04:50:33;;;;;;;4.00;3.30;;;19.30;1.00;;;;;;4997400;28;20237;-67
2022/06/06 04:53:09;;;;;;;3.92;3.45;;;18.90;1.00;;;;;;4997015;28;20175;-68
2022/06/06 04:55:40;;;;;;;7.95;3.17;;;19.00;1.00;;;;;;4996784;28;20186;-67
2022/06/06 04:58:08;;;;;;;6.47;3.38;;;18.70;1.00;;;;;;4997213;28;20174;-68
2022/06/06 05:00:35;;;;;;;7.35;3.20;;;18.40;1.00;;;;;;4996672;28;20176;-68
2022/06/06 05:03:01;;;;;;;4.70;3.42;;;17.70;1.00;;;;;;4996609;28;20175;-68
2022/06/06 05:05:35;;;;;;;3.80;3.40;;;17.10;1.00;;;;;;4997104;28;20180;-68
2022/06/06 05:08:16;;;;;;;4.70;3.50;;;16.90;1.00;;;;;;4997016;28;20178;-68
2022/06/06 05:11:00;;;;;;;4.83;3.80;;;16.90;1.00;;;;;;4996452;28;20286;-68
2022/06/06 05:14:06;;;;;;;3.93;3.33;;;16.70;1.00;;;;;;4996145;28;20195;-67
2022/06/06 05:16:58;;;;;;;4.87;3.60;;;16.30;1.00;;;;;;4996590;28;20179;-67
2022/06/06 05:19:48;;;;;;;4.00;3.53;;;16.10;1.00;;;;;;4996558;28;20190;-68
2022/06/06 05:22:39;;;;;;;4.53;3.93;;;15.80;2.10;;;;;;4995979;28;20215;-69
2022/06/06 05:25:20;;;;;;;7.23;3.80;;;15.60;11.10;;;;;;4995490;28;20199;-67
2022/06/06 05:28:15;;;;;;;4.87;3.83;;;15.30;18.10;;;;;;4996299;28;20174;-66
2022/06/06 05:30:53;;;;;;;5.33;4.40;;;15.20;19.80;;;;;;4996264;28;20238;-68
2022/06/06 05:33:42;;;;;;;7.73;3.73;;;15.10;28.90;;;;;;4996423;28;20279;-67
2022/06/06 05:36:35;;;;;;;4.50;3.90;;;15.10;25.80;;;;;;4995154;28;20206;-67
2022/06/06 05:39:27;;;;;;;5.33;4.00;;;15.10;28.40;;;;;;4996085;28;20207;-68
2022/06/06 05:42:18;;;;;;;5.73;4.03;;;15.20;29.00;;;;;;4996218;28;20205;-69
2022/06/06 05:45:11;;;;;;;4.57;4.10;;;15.30;20.50;;;;;;4995974;28;20262;-67
2022/06/06 05:47:45;;;;;;;8.77;3.93;;;15.40;23.00;;;;;;4996245;28;20179;-68
2022/06/06 05:50:10;;;;;;;5.17;4.27;;;15.60;22.60;;;;;;4995991;28;20214;-69
2022/06/06 05:52:48;;;;;;;6.53;4.00;;;15.80;14.90;;;;;;4995775;28;20517;-69
2022/06/06 05:55:24;;;;;;;5.47;3.80;;;15.90;9.10;;;;;;4995701;28;20174;-69
2022/06/06 05:58:27;;;;;;;4.10;3.70;;;16.20;3.20;;;;;;4993570;28;20266;-68
2022/06/06 06:01:23;;;;;;;4.60;3.30;;;16.50;1.00;;;;;;4996175;28;20170;-68
2022/06/06 06:04:04;;;;;;;4.60;3.83;;;16.50;1.00;;;;;;4995773;28;20171;-68
2022/06/06 06:06:57;;;;;;;5.97;3.47;;;17.10;1.00;;;;;;4995764;28;20179;-68
2022/06/06 06:09:41;;;;;;;3.93;3.30;;;17.50;1.00;;;;;;4994662;28;20253;-68
2022/06/06 06:12:29;;;;;;;3.20;2.90;;;18.30;1.00;;;;;;4995071;28;20183;-69
2022/06/06 06:15:11;;;;;;;3.80;3.03;;;19.10;1.00;;;;;;4994039;28;20207;-68
2022/06/06 06:17:38;;;;;;;6.60;3.00;;;19.60;99.90;;;;;;4995543;28;20210;-68
2022/06/06 06:20:11;;;;;;;3.47;2.72;;;20.30;1.00;;;;;;4995308;28;20163;-69
2022/06/06 06:22:45;;;;;;;2.80;2.60;;;21.00;1.00;;;;;;4994727;28;20239;-69
2022/06/06 06:25:10;;;;;;;2.90;2.70;;;21.60;1.00;;;;;;4994948;28;20170;-69
2022/06/06 06:27:37;;;;;;;3.13;2.75;;;22.30;99.90;;;;;;4994796;28;20627;-69
2022/06/06 06:30:05;;;;;;;2.78;2.53;;;22.40;99.90;;;;;;4995304;28;20219;-70
2022/06/06 06:32:36;;;;;;;3.75;2.40;;;22.30;1.00;;;;;;4995269;28;20167;-69
2022/06/06 06:35:19;;;;;;;4.55;2.53;;;21.60;99.90;;;;;;4995439;28;20171;-69
2022/06/06 06:38:12;;;;;;;4.13;2.40;;;22.60;1.00;;;;;;4994819;28;20175;-70
2022/06/06 06:40:50;;;;;;;7.70;2.50;;;23.30;1.00;;;;;;4994250;28;20635;-70
2022/06/06 06:43:44;;;;;;;3.15;2.50;;;23.70;99.90;;;;;;4995064;28;20179;-68
2022/06/06 06:46:26;;;;;;;3.83;2.78;;;23.00;1.00;;;;;;4994700;28;20182;-69
2022/06/06 06:49:00;;;;;;;2.65;2.45;;;22.90;1.00;;;;;;4994474;28;20172;-70
2022/06/06 06:51:54;;;;;;;3.45;3.15;;;24.20;99.90;;;;;;4994857;28;20246;-71
2022/06/06 06:54:43;;;;;;;3.20;3.00;;;25.10;1.00;;;;;;4993513;28;20655;-71
2022/06/06 06:57:35;;;;;;;5.80;3.13;;;25.40;1.00;;;;;;4994593;28;20233;-71
2022/06/06 07:00:10;;;;;;;2.92;2.72;;;25.60;1.00;;;;;;4994359;28;20237;-71
2022/06/06 07:09:15;;;;;;;3.85;3.50;;;24.30;1.00;;;;;;4994466;28;20222;-71
2022/06/06 07:12:04;;;;;;;3.22;2.90;;;24.80;1.00;;;;;;4994142;28;20203;-71
2022/06/06 07:14:48;;;;;;;3.47;3.17;;;26.10;1.00;;;;;;4983386;28;20686;-71
2022/06/06 07:17:15;;;;;;;3.45;2.72;;;27.00;99.90;;;;;;4994542;28;20171;-72
2022/06/06 07:19:45;;;;;;;3.53;3.00;;;27.10;99.90;;;;;;4994336;28;20214;-71
2022/06/06 07:22:14;;;;;;;3.17;2.97;;;27.60;99.90;;;;;;4992816;28;20226;-71
2022/06/06 07:24:42;;;;;;;7.25;3.28;;;26.90;99.90;;;;;;4993630;28;20190;-71
2022/06/06 07:27:09;;;;;;;4.90;2.90;;;27.40;99.90;;;;;;4992921;28;20222;-70
2022/06/06 07:29:35;;;;;;;3.60;3.17;;;25.60;1.00;;;;;;4993713;28;20258;-69
2022/06/06 07:32:07;;;;;;;3.50;3.20;;;25.50;1.00;;;;;;4994291;28;20267;-72
2022/06/06 07:34:45;;;;;;;3.17;2.90;;;26.90;1.00;;;;;;4994111;28;20246;-71
2022/06/06 07:37:49;;;;;;;6.18;2.47;;;27.60;99.90;;;;;;4993675;28;20540;-71
2022/06/06 07:40:55;;;;;;;4.50;2.10;;;28.70;99.90;;;;;;4993604;28;20757;-71
2022/06/06 07:43:34;;;;;;;2.17;2.08;;;28.90;99.90;;;;;;4992069;28;20175;-71
2022/06/06 07:46:42;;;;;;;2.35;2.15;;;28.70;99.90;;;;;;4991555;28;20399;-70
2022/06/06 07:49:21;;;;;;;2.33;2.13;;;26.80;99.90;;;;;;4960595;28;20183;-71
2022/06/06 07:52:14;;;;;;;3.53;2.20;;;25.20;99.90;;;;;;4993384;28;20206;-69
2022/06/06 07:55:16;;;;;;;2.30;2.10;;;24.10;1.00;;;;;;4993523;28;20178;-71
2022/06/06 07:57:50;;;;;;;2.40;2.20;;;25.60;1.00;;;;;;4992917;28;20305;-71
2022/06/06 08:00:21;;;;;;;2.47;2.30;;;26.00;99.90;;;;;;4993904;28;20166;-71
2022/06/06 08:03:07;;;;;;;2.10;2.00;;;26.40;99.90;;;;;;4993282;28;20167;-70
2022/06/06 08:06:00;;;;;;;2.33;2.13;;;25.60;99.90;;;;;;4993769;28;20202;-70
2022/06/06 08:08:42;;;;;;;2.78;2.00;;;25.20;99.90;;;;;;4992045;28;20225;-70
2022/06/06 08:11:20;;;;;;;2.63;2.20;;;23.90;1.00;;;;;;4993071;28;20277;-70
2022/06/06 08:13:55;;;;;;;3.28;1.90;;;23.80;1.00;;;;;;4993073;28;20183;-71
2022/06/06 08:16:39;;;;;;;2.38;2.13;;;24.10;1.00;;;;;;4993770;28;20171;-71
2022/06/06 08:19:25;;;;;;;2.70;1.85;;;23.80;1.00;;;;;;4993318;28;20293;-71
2022/06/06 08:21:51;;;;;;;3.42;2.00;;;24.30;1.00;;;;;;4994854;28;20218;-71
2022/06/06 08:24:32;;;;;;;2.25;1.73;;;25.90;99.90;;;;;;4997399;28;20171;-72
2022/06/06 08:27:00;;;;;;;4.25;2.00;;;26.00;99.90;;;;;;4997473;28;20179;-70
2022/06/06 08:29:28;;;;;;;1.90;1.70;;;26.10;99.90;;;;;;4997285;28;20627;-71
2022/06/06 08:31:54;;;;;;;1.67;1.58;;;25.80;99.90;;;;;;4997256;28;20219;-72
2022/06/06 08:34:21;;;;;;;3.03;1.75;;;27.00;99.90;;;;;;4997225;28;20202;-72
2022/06/06 08:37:13;;;;;;;1.65;1.45;;;28.40;99.90;;;;;;4996890;28;20187;-72
2022/06/06 08:39:51;;;;;;;1.63;1.35;;;29.10;99.90;;;;;;4997064;28;20179;-72
2022/06/06 08:42:49;;;;;;;2.63;1.67;;;28.40;99.90;;;;;;4997036;28;20172;-71
2022/06/06 08:45:27;;;;;;;1.60;1.50;;;28.00;99.90;;;;;;4995428;28;20623;-72
2022/06/06 08:48:02;;;;;;;1.90;1.50;;;28.80;99.90;;;;;;4997217;28;20179;-73
2022/06/06 08:50:45;;;;;;;1.35;1.25;;;28.80;99.90;;;;;;4996386;28;20202;-72
2022/06/06 08:53:39;;;;;;;1.40;1.30;;;28.20;99.90;;;;;;4996703;28;20199;-71
2022/06/06 08:56:26;;;;;;;2.05;1.35;;;28.50;99.90;;;;;;4997036;28;20168;-71
2022/06/06 08:58:57;;;;;;;3.33;1.50;;;27.50;99.90;;;;;;4996864;28;20171;-70
2022/06/06 09:01:58;;;;;;;3.25;1.40;;;26.80;99.90;;;;;;4996499;28;20258;-71
2022/06/06 09:04:38;;;;;;;2.55;1.60;;;26.10;99.90;;;;;;4996802;28;20678;-70
2022/06/06 09:07:42;;;;;;;2.20;1.42;;;24.50;99.90;;;;;;4996378;28;20183;-71
2022/06/06 09:10:25;;;;;;;2.67;1.45;;;23.80;99.90;;;;;;4996727;28;20277;-70
2022/06/06 09:13:13;;;;;;;2.63;1.58;;;23.10;1.00;;;;;;4996404;28;20642;-70
2022/06/06 09:15:57;;;;;;;2.03;1.60;;;22.90;1.00;;;;;;4996494;28;20171;-70
2022/06/06 09:18:50;;;;;;;2.83;1.48;;;23.00;1.00;;;;;;4996673;28;20214;-71
2022/06/06 09:21:27;;;;;;;1.55;1.40;;;23.50;1.00;;;;;;4996187;28;20172;-71
2022/06/06 09:24:14;;;;;;;2.55;1.48;;;23.30;1.00;;;;;;4996156;28;20190;-71
2022/06/06 09:26:45;;;;;;;3.65;1.67;;;22.50;1.00;;;;;;4996425;28;20191;-71
2022/06/06 09:29:46;;;;;;;2.80;1.40;;;22.10;1.00;;;;;;4996459;28;20214;-70
2022/06/06 09:32:35;;;;;;;1.42;1.30;;;21.60;99.90;;;;;;4995646;28;20634;-70
2022/06/06 09:35:36;;;;;;;1.50;1.35;;;21.00;1.00;;;;;;4991013;28;20643;-71
2022/06/06 09:38:35;;;;;;;1.85;1.40;;;20.90;99.90;;;;;;4995998;28;20194;-71
2022/06/06 09:41:39;;;;;;;4.70;1.50;;;21.90;1.00;;;;;;4995979;28;20163;-70
2022/06/06 09:44:10;;;;;;;1.80;1.45;;;23.40;1.00;;;;;;4995673;28;20166;-70
2022/06/06 09:46:47;;;;;;;1.50;1.38;;;24.70;1.00;;;;;;4995888;28;20627;-70
2022/06/06 09:49:39;;;;;;;1.45;1.33;;;25.20;99.90;;;;;;4995482;28;20174;-71
2022/06/06 09:52:29;;;;;;;2.25;1.40;;;25.20;99.90;;;;;;4995713;28;20639;-70
2022/06/06 10:02:07;;;;;;;2.15;1.52;;;24.20;1.00;;;;;;4995713;28;20535;-69
2022/06/06 10:04:45;;;;;;;1.60;1.20;;;24.20;1.00;;;;;;4993806;28;20299;-71
2022/06/06 10:07:29;;;;;;;1.67;1.40;;;24.60;99.90;;;;;;4995611;28;20639;-69
2022/06/06 10:10:17;;;;;;;2.08;1.20;;;23.90;99.90;;;;;;4994441;28;20254;-70
2022/06/06 10:12:55;;;;;;;1.50;1.10;;;23.10;1.00;;;;;;4994971;28;20262;-70
2022/06/06 10:15:41;;;;;;;2.05;1.30;;;23.10;1.00;;;;;;4995565;28;20177;-69
2022/06/06 10:18:22;;;;;;;1.45;1.20;;;24.10;1.00;;;;;;4994660;28;20614;-70
2022/06/06 10:21:36;;;;;;;2.00;1.20;;;25.00;99.90;;;;;;4995213;28;20701;-70
2022/06/06 10:24:13;;;;;;;4.43;1.92;;;25.70;99.90;;;;;;4995092;28;20195;-70
2022/06/06 10:26:57;;;;;;;2.58;1.20;;;25.30;99.90;;;;;;4995279;28;20673;-69
2022/06/06 10:30:12;;;;;;;1.42;1.05;;;24.40;99.90;;;;;;4994655;28;20182;-70
2022/06/06 10:32:56;;;;;;;1.50;1.10;;;23.40;99.90;;;;;;4994717;28;20214;-69
2022/06/06 10:35:30;;;;;;;1.90;1.08;;;23.20;1.00;;;;;;4994718;28;20183;-69
2022/06/06 10:38:13;;;;;;;1.90;1.25;;;22.90;1.00;;;;;;4995125;28;20185;-69
2022/06/06 10:41:22;;;;;;;1.73;1.27;;;22.20;1.00;;;;;;4994587;28;20174;-69
2022/06/06 10:43:51;;;;;;;1.95;1.10;;;21.90;1.00;;;;;;4992750;28;20215;-69
2022/06/06 10:46:23;;;;;;;4.72;1.13;;;21.60;94.40;;;;;;4992833;28;20747;-69
2022/06/06 10:49:15;;;;;;;1.10;0.98;;;21.00;1.00;;;;;;4991774;28;20254;-69
2022/06/06 10:51:53;;;;;;;3.33;1.13;;;20.80;99.90;;;;;;4992209;28;20301;-69
2022/06/06 10:54:46;;;;;;;1.45;1.10;;;20.50;1.00;;;;;;4976344;28;20173;-69
2022/06/06 10:57:32;;;;;;;2.30;1.27;;;20.00;1.00;;;;;;4976144;28;20710;-70
2022/06/06 11:00:11;;;;;;;1.30;1.10;;;19.80;26.90;;;;;;4992152;28;20357;-69
2022/06/06 11:03:12;;;;;;;1.33;1.20;;;19.60;55.60;;;;;;4991583;28;20257;-69
2022/06/06 11:06:08;;;;;;;2.83;1.20;;;19.60;1.00;;;;;;4992430;28;20179;-69
2022/06/06 11:08:37;;;;;;;1.15;1.05;;;19.80;1.00;;;;;;4979308;28;20218;-71
2022/06/06 11:11:17;;;;;;;2.60;1.38;;;20.20;1.00;;;;;;4991739;28;20314;-69
2022/06/06 11:13:43;;;;;;;2.60;1.17;;;20.70;99.90;;;;;;4992196;28;20210;-70
2022/06/06 11:16:29;;;;;;;3.10;1.10;;;21.50;99.90;;;;;;4991909;28;20215;-70
2022/06/06 11:19:14;;;;;;;1.77;1.40;;;22.20;99.90;;;;;;4994130;28;20179;-70
2022/06/06 11:21:58;;;;;;;1.48;0.90;;;22.30;71.40;;;;;;4993262;28;20194;-69
2022/06/06 11:24:42;;;;;;;3.53;0.95;;;21.80;1.00;;;;;;4994113;28;20171;-71
2022/06/06 11:27:35;;;;;;;1.40;1.20;;;21.80;1.00;;;;;;4994252;28;20714;-70
2022/06/06 11:30:25;;;;;;;0.90;0.90;;;21.50;19.00;;;;;;4994927;28;20179;-69
2022/06/06 11:33:21;;;;;;;1.90;1.20;;;21.50;99.90;;;;;;4992877;28;20206;-69
2022/06/06 11:36:20;;;;;;;3.40;1.10;;;21.40;99.90;;;;;;4993707;28;20270;-70
2022/06/06 11:39:01;;;;;;;1.75;1.02;;;21.20;1.00;;;;;;4992802;28;20182;-69
2022/06/06 11:41:55;;;;;;;0.93;0.82;;;20.60;99.90;;;;;;4993249;28;20171;-70
2022/06/06 11:44:29;;;;;;;3.92;1.38;;;20.40;99.90;;;;;;4993859;28;20237;-70
2022/06/06 11:47:05;;;;;;;3.70;1.13;;;20.20;99.90;;;;;;4993417;28;20198;-69
2022/06/06 11:49:55;;;;;;;3.60;1.20;;;20.20;1.00;;;;;;4993498;28;20174;-69
2022/06/06 11:52:46;;;;;;;2.75;1.50;;;20.20;99.90;;;;;;4993974;28;20182;-70
2022/06/06 11:55:50;;;;;;;2.33;1.20;;;20.30;99.90;;;;;;4993753;28;20258;-70
2022/06/06 11:58:37;;;;;;;2.45;1.10;;;20.50;1.00;;;;;;4982239;28;20198;-70
2022/06/06 12:01:06;;;;;;;3.58;1.10;;;20.70;99.90;;;;;;4992685;28;20178;-70
2022/06/06 12:03:50;;;;;;;2.25;1.15;;;21.00;99.90;;;;;;4993853;28;20171;-70
2022/06/06 12:06:47;;;;;;;1.33;1.00;;;21.40;1.00;;;;;;4993638;28;20175;-70
2022/06/06 12:09:34;;;;;;;1.67;1.40;;;21.50;1.00;;;;;;4993120;28;20178;-70
2022/06/06 12:12:27;;;;;;;0.90;0.90;;;21.30;1.00;;;;;;4993084;28;20682;-70
2022/06/06 12:14:56;;;;;;;2.35;1.02;;;21.40;1.00;;;;;;4992948;28;20294;-69
2022/06/06 12:17:56;;;;;;;3.75;1.00;;;20.90;99.90;;;;;;4993448;28;20167;-69
2022/06/06 12:20:47;;;;;;;1.40;1.05;;;21.10;99.90;;;;;;4992939;28;20170;-70
2022/06/06 12:23:16;;;;;;;2.60;1.30;;;21.40;44.30;;;;;;4993267;28;20238;-70
2022/06/06 12:26:14;;;;;;;3.55;1.40;;;21.30;1.00;;;;;;4993140;28;20179;-69
2022/06/06 12:29:13;;;;;;;1.40;1.30;;;21.70;1.00;;;;;;4992151;28;20270;-69
2022/06/06 12:31:42;;;;;;;2.35;1.30;;;22.00;1.00;;;;;;4992847;28;20233;-71
2022/06/06 12:34:18;;;;;;;2.15;1.25;;;21.70;1.00;;;;;;4992990;28;20171;-70
2022/06/06 12:36:58;;;;;;;1.70;1.20;;;21.50;99.90;;;;;;4992329;28;20524;-71
2022/06/06 12:39:27;;;;;;;5.90;1.27;;;21.80;1.00;;;;;;4991930;28;20167;-69
2022/06/06 12:42:24;;;;;;;3.05;1.33;;;21.50;1.00;;;;;;4993120;28;20171;-69
2022/06/06 12:45:14;;;;;;;1.60;1.08;;;21.40;1.00;;;;;;4992710;28;20175;-70
2022/06/06 12:48:22;;;;;;;3.47;1.05;;;21.30;1.00;;;;;;4993282;28;20739;-69
2022/06/06 12:51:02;;;;;;;1.33;1.10;;;20.90;1.00;;;;;;4993098;28;20223;-71
2022/06/06 12:54:06;;;;;;;4.65;1.40;;;21.00;99.90;;;;;;4992864;28;20171;-69
2022/06/06 12:56:54;;;;;;;2.80;1.17;;;21.30;99.90;;;;;;4993067;28;20181;-70
2022/06/06 12:59:19;;;;;;;4.82;1.33;;;21.50;99.90;;;;;;4992560;28;20172;-70
2022/06/06 13:02:26;;;;;;;3.40;1.23;;;21.80;1.00;;;;;;4993314;28;20174;-70
2022/06/06 13:05:16;;;;;;;3.38;1.25;;;22.00;1.00;;;;;;4992607;28;20170;-70
2022/06/06 13:07:55;;;;;;;4.90;1.30;;;22.30;99.90;;;;;;4993202;28;20261;-71
2022/06/06 13:10:45;;;;;;;3.88;1.20;;;22.20;1.00;;;;;;4996062;28;20203;-70
2022/06/06 13:13:24;;;;;;;5.50;1.15;;;22.30;1.00;;;;;;4996512;28;20195;-69
2022/06/06 13:16:17;;;;;;;1.58;1.30;;;22.20;1.00;;;;;;4996094;28;20175;-70
2022/06/06 13:19:02;;;;;;;2.97;1.17;;;21.80;1.00;;;;;;4996587;28;20178;-70
2022/06/06 13:21:53;;;;;;;2.78;1.33;;;21.40;1.00;;;;;;4995659;28;20175;-69
2022/06/06 13:24:24;;;;;;;2.88;1.30;;;21.30;99.90;;;;;;4996603;28;20179;-70
2022/06/06 13:26:55;;;;;;;2.47;1.10;;;21.20;99.90;;;;;;4994817;28;20168;-70
2022/06/06 13:29:31;;;;;;;2.67;1.30;;;21.20;1.00;;;;;;4995962;28;20183;-70
2022/06/06 13:32:18;;;;;;;2.53;1.25;;;21.30;1.00;;;;;;4995772;28;20218;-71
2022/06/06 13:35:00;;;;;;;4.75;1.50;;;21.40;1.00;;;;;;4996472;28;20279;-71
2022/06/06 13:37:54;;;;;;;2.75;1.20;;;21.60;99.90;;;;;;4996454;28;20194;-70
2022/06/06 13:40:28;;;;;;;2.28;1.50;;;21.80;1.00;;;;;;4996140;28;20282;-71
2022/06/06 13:43:20;;;;;;;2.38;1.42;;;21.90;99.90;;;;;;4995328;28;20251;-71
2022/06/06 13:45:52;;;;;;;2.72;1.33;;;21.60;1.00;;;;;;4996217;28;20646;-70
2022/06/06 13:48:27;;;;;;;1.77;1.30;;;21.40;1.00;;;;;;4995814;28;20183;-70
2022/06/06 13:51:24;;;;;;;4.18;1.42;;;21.50;1.00;;;;;;4995314;28;20213;-70
2022/06/06 13:54:04;;;;;;;2.95;1.42;;;21.90;99.90;;;;;;4994270;28;20171;-69
2022/06/06 13:56:49;;;;;;;1.45;1.30;;;22.10;99.90;;;;;;4995113;28;20209;-70
2022/06/06 13:59:30;;;;;;;2.33;1.23;;;22.00;72.40;;;;;;4995290;28;20179;-70
2022/06/06 14:02:10;;;;;;;1.13;1.10;;;21.60;99.90;;;;;;4995300;28;20183;-69
2022/06/06 14:04:54;;;;;;;2.85;1.27;;;21.70;1.00;;;;;;4995811;28;20179;-69
2022/06/06 14:07:53;;;;;;;1.60;0.95;;;21.50;1.00;;;;;;4995362;28;20199;-68
2022/06/06 14:10:19;;;;;;;1.52;1.13;;;21.50;99.90;;;;;;4994766;28;20207;-69
2022/06/06 14:13:09;;;;;;;2.95;1.40;;;21.70;99.90;;;;;;4995434;28;20167;-70
2022/06/06 14:15:44;;;;;;;3.03;1.23;;;21.60;1.00;;;;;;4995287;28;20199;-71